Time;durP1;ratioP1;P1;durP2;ratioP2;P2;SDS_P1;SDS_P2;PMS_P1;PMS_P2;Temp;Humidity;BMP_temperature;BMP_pressure;BME280_temperature;BME280_humidity;BME280_pressure;Samples;Min_cycle;Max_cycle;Signal;HPM_P1;HPM_P2
2023/11/08 00:01:37;;;;;;;;;12.50;10.00;;;;;-143.90;100.00;75333.47;4973244;28;102055;-73
2023/11/08 00:04:04;;;;;;;;;13.00;11.75;;;;;-143.90;100.00;75352.09;4985072;28;102295;-73
2023/11/08 00:06:33;;;;;;;;;14.50;11.75;;;;;-143.90;100.00;75358.28;4982779;28;102291;-73
2023/11/08 00:08:59;;;;;;;;;8.25;7.75;;;;;-143.90;100.00;75358.28;4973493;28;104283;-73
2023/11/08 00:11:26;;;;;;;;;6.75;5.00;;;;;-143.90;100.00;75356.22;4983296;28;101920;-73
2023/11/08 00:13:55;;;;;;;;;7.00;6.50;;;;;-143.90;100.00;75354.16;4978663;28;102403;-74
2023/11/08 00:16:22;;;;;;;;;7.50;6.75;;;;;-143.90;100.00;75354.16;4975070;28;102179;-74
2023/11/08 00:18:49;;;;;;;;;8.50;4.00;;;;;-143.90;100.00;75356.22;4995573;28;104077;-73
2023/11/08 00:21:16;;;;;;;;;5.25;4.00;;;;;-143.90;100.00;75362.44;4970675;28;102404;-73
2023/11/08 00:23:43;;;;;;;;;7.75;7.50;;;;;-143.90;100.00;75350.03;4981090;28;102065;-73
2023/11/08 00:26:11;;;;;;;;;5.75;4.75;;;;;-143.90;100.00;75358.28;4974694;28;101960;-74
2023/11/08 00:28:39;;;;;;;;;7.50;7.00;;;;;-143.90;100.00;75362.44;4971189;28;104116;-73
2023/11/08 00:31:07;;;;;;;;;8.25;8.00;;;;;-143.90;100.00;75362.44;4974030;28;102153;-73
2023/11/08 00:33:33;;;;;;;;;7.50;4.00;;;;;-143.90;100.00;75362.44;4971220;28;102157;-74
2023/11/08 00:36:00;;;;;;;;;8.25;7.00;;;;;-143.90;100.00;75368.63;4973113;28;103190;-73
2023/11/08 00:38:26;;;;;;;;;9.00;8.50;;;;;-143.90;100.00;75366.56;4974315;28;103017;-73
2023/11/08 00:40:53;;;;;;;;;8.50;8.00;;;;;-143.90;100.00;75366.56;4971617;28;102043;-74
2023/11/08 00:43:20;;;;;;;;;9.00;8.75;;;;;-143.90;100.00;75362.44;4966206;28;102271;-74
2023/11/08 00:45:47;;;;;;;;;10.00;8.50;;;;;-143.90;100.00;75364.50;4973847;28;103241;-73
2023/11/08 00:48:13;;;;;;;;;7.25;7.00;;;;;-143.90;100.00;75362.44;4970414;28;104053;-74
2023/11/08 00:50:40;;;;;;;;;5.25;5.00;;;;;-143.90;100.00;75366.56;4975348;28;102276;-74
2023/11/08 00:53:10;;;;;;;;;8.50;7.75;;;;;-143.90;100.00;75362.44;4979945;28;102377;-74
2023/11/08 00:55:38;;;;;;;;;9.50;9.25;;;;;-143.90;100.00;75356.22;4978788;28;101911;-74
2023/11/08 00:58:05;;;;;;;;;13.00;9.00;;;;;-143.90;100.00;75358.28;4973648;28;103398;-74
2023/11/08 01:00:31;;;;;;;;;10.50;7.25;;;;;-143.90;100.00;75358.28;4972995;28;102148;-74
2023/11/08 01:02:59;;;;;;;;;8.25;7.25;;;;;-143.90;100.00;75358.28;4970593;28;102225;-74
2023/11/08 01:05:26;;;;;;;;;14.75;13.00;;;;;-143.90;100.00;75362.44;4975930;28;102423;-74
2023/11/08 01:07:53;;;;;;;;;17.75;16.50;;;;;-143.90;100.00;75370.69;4975139;28;104336;-74
2023/11/08 01:10:21;;;;;;;;;14.75;14.25;;;;;-143.90;100.00;75374.84;4974958;28;102100;-74
2023/11/08 01:12:50;;;;;;;;;22.25;21.50;;;;;-143.90;100.00;75399.63;4983470;28;102454;-73
2023/11/08 01:15:17;;;;;;;;;25.75;18.75;;;;;-143.90;100.00;75405.84;4976313;28;102213;-73
2023/11/08 01:17:44;;;;;;;;;25.75;23.00;;;;;-143.90;100.00;75403.78;4980394;28;104486;-74
2023/11/08 01:20:11;;;;;;;;;22.00;18.25;;;;;-143.90;100.00;75391.38;4983069;28;102267;-73
2023/11/08 01:22:38;;;;;;;;;29.75;24.50;;;;;-143.90;100.00;75403.78;4978087;28;102343;-74
2023/11/08 01:25:06;;;;;;;;;25.25;20.00;;;;;-143.90;100.00;75401.72;4971603;28;102371;-74
2023/11/08 01:27:32;;;;;;;;;19.50;16.25;;;;;-143.90;100.00;75403.78;4974371;28;104017;-74
2023/11/08 01:30:00;;;;;;;;;22.50;20.75;;;;;-143.90;100.00;75414.13;4974401;28;102234;-74
2023/11/08 01:32:27;;;;;;;;;24.75;21.25;;;;;-143.90;100.00;75407.91;4974172;28;101995;-73
2023/11/08 01:34:54;;;;;;;;;14.00;13.50;;;;;-143.90;100.00;75414.13;4985071;28;102043;-74
2023/11/08 01:37:20;;;;;;;;;17.75;16.75;;;;;-143.90;100.00;75422.38;4971760;28;102865;-74
2023/11/08 01:39:47;;;;;;;;;23.00;20.00;;;;;-143.90;100.00;75424.44;4973495;28;102089;-74
2023/11/08 01:42:13;;;;;;;;;21.50;21.00;;;;;-143.90;100.00;75426.50;4987509;28;102153;-73
2023/11/08 01:44:40;;;;;;;;;16.50;16.00;;;;;-143.90;100.00;75426.50;4982510;28;102202;-73
2023/11/08 01:47:07;;;;;;;;;15.75;14.00;;;;;-143.90;100.00;75424.44;4977719;28;103979;-73
2023/11/08 01:49:34;;;;;;;;;19.00;16.50;;;;;-143.90;100.00;75420.31;4983825;28;102298;-73
2023/11/08 01:52:02;;;;;;;;;15.50;13.00;;;;;-143.90;100.00;75416.19;4987195;28;102090;-73
2023/11/08 01:54:28;;;;;;;;;14.00;11.75;;;;;-143.90;100.00;75403.78;4984230;28;102075;-74
2023/11/08 01:56:57;;;;;;;;;10.00;9.25;;;;;-143.90;100.00;75405.84;5003023;28;105571;-73
2023/11/08 01:59:25;;;;;;;;;10.25;8.75;;;;;-143.90;100.00;75403.78;4974828;28;102342;-73
2023/11/08 02:01:57;;;;;;;;;7.75;6.50;;;;;-143.90;100.00;75395.50;4976406;28;102199;-74
2023/11/08 02:04:27;;;;;;;;;12.75;9.00;;;;;-143.90;100.00;75401.72;4978132;28;102671;-72
2023/11/08 02:06:53;;;;;;;;;11.00;9.00;;;;;-143.90;100.00;75397.56;4986501;28;104141;-72
2023/11/08 02:09:20;;;;;;;;;8.00;7.00;;;;;-143.90;100.00;75399.63;4973505;28;102385;-73
2023/11/08 02:11:47;;;;;;;;;8.25;7.50;;;;;-143.90;100.00;75399.63;4973587;28;102219;-74
2023/11/08 02:14:14;;;;;;;;;7.75;6.50;;;;;-143.90;100.00;75389.31;4980831;28;102296;-73
2023/11/08 02:16:40;;;;;;;;;6.50;6.50;;;;;-143.90;100.00;75391.38;4989975;28;104293;-74
2023/11/08 02:19:07;;;;;;;;;8.00;7.50;;;;;-143.90;100.00;75391.38;4975089;28;102277;-74
2023/11/08 02:21:34;;;;;;;;;7.00;5.25;;;;;-143.90;100.00;75387.22;4982626;28;102163;-73
2023/11/08 02:24:20;;;;;;;;;7.00;7.00;;;;;-143.90;100.00;75378.97;4979745;28;101879;-73
2023/11/08 02:26:50;;;;;;;;;8.25;6.75;;;;;-143.90;100.00;75360.34;4980449;28;104046;-74
2023/11/08 02:29:19;;;;;;;;;7.00;5.50;;;;;-143.90;100.00;75368.63;4988020;28;102291;-74
2023/11/08 02:31:50;;;;;;;;;11.75;9.25;;;;;-143.90;100.00;75360.34;4975021;28;102042;-73
2023/11/08 02:34:17;;;;;;;;;3.00;2.00;;;;;-143.90;100.00;75368.63;4991581;28;102276;-74
2023/11/08 02:36:44;;;;;;;;;12.00;10.00;;;;;-143.90;100.00;75364.50;4973392;28;104183;-73
2023/11/08 02:39:12;;;;;;;;;9.25;5.50;;;;;-143.90;100.00;75364.50;4994524;28;102240;-73
2023/11/08 02:41:39;;;;;;;;;9.00;8.00;;;;;-143.90;100.00;75364.50;4972819;28;102173;-74
2023/11/08 02:44:08;;;;;;;;;14.00;12.00;;;;;-143.90;100.00;75362.44;4980660;28;102412;-73
2023/11/08 02:46:35;;;;;;;;;7.00;7.00;;;;;-143.90;100.00;75356.22;4982156;28;103708;-73
2023/11/08 02:49:02;;;;;;;;;7.75;6.75;;;;;-143.90;100.00;75352.09;4985605;28;102081;-74
2023/11/08 02:51:29;;;;;;;;;10.00;9.00;;;;;-143.90;100.00;75354.16;4983212;28;102047;-73
2023/11/08 02:53:59;;;;;;;;;10.00;7.50;;;;;-143.90;100.00;75362.44;4975343;28;103242;-74
2023/11/08 02:56:25;;;;;;;;;13.75;10.50;;;;;-143.90;100.00;75370.69;4972340;28;105249;-74
2023/11/08 02:58:53;;;;;;;;;7.75;6.00;;;;;-143.90;100.00;75362.44;4976833;28;102205;-74
2023/11/08 03:01:23;;;;;;;;;2.25;2.00;;;;;-143.90;100.00;75366.56;4974469;28;101860;-73
2023/11/08 03:03:50;;;;;;;;;5.25;5.25;;;;;-143.90;100.00;75366.56;4975979;28;102284;-74
2023/11/08 03:06:19;;;;;;;;;7.00;7.00;;;;;-143.90;100.00;75364.50;4976847;28;104677;-73
2023/11/08 03:08:47;;;;;;;;;4.50;4.50;;;;;-143.90;100.00;75370.69;4973872;28;102433;-73
2023/11/08 03:11:13;;;;;;;;;3.75;3.75;;;;;-143.90;100.00;75368.63;4973988;28;102333;-73
2023/11/08 03:13:40;;;;;;;;;8.25;5.50;;;;;-143.90;100.00;75370.69;4977655;28;102451;-73
2023/11/08 03:16:06;;;;;;;;;5.50;4.00;;;;;-143.90;100.00;75370.69;4986798;28;104007;-74
2023/11/08 03:18:33;;;;;;;;;5.75;2.75;;;;;-143.90;100.00;75385.16;4976138;28;102493;-73
2023/11/08 03:21:00;;;;;;;;;4.25;3.25;;;;;-143.90;100.00;75385.16;4977060;28;102135;-73
2023/11/08 03:23:27;;;;;;;;;6.75;4.00;;;;;-143.90;100.00;75391.38;4976820;28;102743;-73
2023/11/08 03:25:53;;;;;;;;;5.50;5.50;;;;;-143.90;100.00;75391.38;4978231;28;104195;-73
2023/11/08 03:28:20;;;;;;;;;7.00;4.00;;;;;-143.90;100.00;75391.38;4978939;28;102421;-73
2023/11/08 03:30:47;;;;;;;;;7.75;7.00;;;;;-143.90;100.00;75393.44;4977247;28;101754;-74
2023/11/08 03:33:14;;;;;;;;;4.00;4.00;;;;;-143.90;100.00;75387.22;4984301;28;102043;-74
2023/11/08 03:35:41;;;;;;;;;8.00;5.50;;;;;-143.90;100.00;75391.38;4981748;28;104463;-73
2023/11/08 03:38:07;;;;;;;;;4.75;4.75;;;;;-143.90;100.00;75393.44;4973766;28;102144;-74
2023/11/08 03:40:34;;;;;;;;;7.50;5.50;;;;;-143.90;100.00;75395.50;4975917;28;102089;-74
2023/11/08 03:43:02;;;;;;;;;8.00;7.50;;;;;-143.90;100.00;75391.38;4979341;28;102842;-74
2023/11/08 03:45:28;;;;;;;;;4.00;3.00;;;;;-143.90;100.00;75395.50;4985492;28;104145;-74
2023/11/08 03:47:55;;;;;;;;;2.00;2.00;;;;;-143.90;100.00;75395.50;4978293;28;102399;-74
2023/11/08 03:50:22;;;;;;;;;5.00;3.75;;;;;-143.90;100.00;75389.31;4974350;28;103135;-74
2023/11/08 03:52:48;;;;;;;;;3.50;3.25;;;;;-143.90;100.00;75395.50;4977251;28;101993;-74
2023/11/08 03:55:15;;;;;;;;;6.50;4.75;;;;;-143.90;100.00;75387.22;4972750;28;103893;-73
2023/11/08 03:57:42;;;;;;;;;9.75;7.50;;;;;-143.90;100.00;75391.38;4976483;28;102290;-72
2023/11/08 04:00:09;;;;;;;;;8.50;8.25;;;;;-143.90;100.00;75383.09;4983493;28;102401;-73
2023/11/08 04:02:36;;;;;;;;;4.00;4.00;;;;;-143.90;100.00;75385.16;4972270;28;102097;-73
2023/11/08 04:05:02;;;;;;;;;3.00;3.00;;;;;-143.90;100.00;75391.38;4976528;28;103996;-74
2023/11/08 04:07:30;;;;;;;;;4.50;4.50;;;;;-143.90;100.00;75387.22;4972057;28;102140;-73
2023/11/08 04:09:57;;;;;;;;;3.50;3.25;;;;;-143.90;100.00;75385.16;4972094;28;102314;-74
2023/11/08 04:12:24;;;;;;;;;2.25;2.00;;;;;-143.90;100.00;75391.38;4997270;28;102788;-73
2023/11/08 04:14:50;;;;;;;;;2.75;2.75;;;;;-143.90;100.00;75391.38;4980481;28;104105;-73
2023/11/08 04:17:19;;;;;;;;;6.00;5.50;;;;;-143.90;100.00;75391.38;4985877;28;102330;-73
2023/11/08 04:19:46;;;;;;;;;7.50;5.00;;;;;-143.90;100.00;75395.50;4971910;28;102222;-74
2023/11/08 04:22:14;;;;;;;;;4.50;4.00;;;;;-143.90;100.00;75395.50;4978851;28;102184;-73
2023/11/08 04:24:43;;;;;;;;;1.50;1.50;;;;;-143.90;100.00;75399.63;4974934;28;104135;-73
2023/11/08 04:27:10;;;;;;;;;2.25;1.75;;;;;-143.90;100.00;75403.78;4975478;28;101917;-74
2023/11/08 04:29:41;;;;;;;;;6.75;5.50;;;;;-143.90;100.00;75418.25;4969956;28;101966;-73
2023/11/08 04:32:08;;;;;;;;;8.75;4.75;;;;;-143.90;100.00;75416.19;4976386;28;102283;-73
2023/11/08 04:34:35;;;;;;;;;7.00;7.00;;;;;-143.90;100.00;75414.13;4974452;28;104217;-73
2023/11/08 04:37:06;;;;;;;;;7.75;6.50;;;;;-143.90;100.00;75416.19;4973591;28;102559;-74
2023/11/08 04:39:32;;;;;;;;;6.00;4.00;;;;;-143.90;100.00;75416.19;4975059;28;102135;-74
2023/11/08 04:42:00;;;;;;;;;5.00;3.00;;;;;-143.90;100.00;75418.25;4980106;28;102602;-74
2023/11/08 04:44:26;;;;;;;;;3.75;3.75;;;;;-143.90;100.00;75420.31;4979855;28;104178;-74
2023/11/08 04:46:53;;;;;;;;;3.00;3.00;;;;;-143.90;100.00;75420.31;4973257;28;102632;-75
2023/11/08 04:49:20;;;;;;;;;4.25;3.50;;;;;-143.90;100.00;75416.19;4979489;28;102338;-72
2023/11/08 04:51:47;;;;;;;;;5.25;5.25;;;;;-143.90;100.00;75420.31;4975575;28;102234;-73
2023/11/08 04:54:13;;;;;;;;;2.25;2.25;;;;;-143.90;100.00;75414.13;4976102;28;104077;-74
2023/11/08 04:56:41;;;;;;;;;3.00;3.00;;;;;-143.90;100.00;75420.31;4983702;28;102056;-73
2023/11/08 04:59:11;;;;;;;;;4.00;4.00;;;;;-143.90;100.00;75424.44;4976094;28;102955;-74
2023/11/08 05:01:39;;;;;;;;;7.25;7.00;;;;;-143.90;100.00;75414.13;4976082;28;102726;-74
2023/11/08 05:04:05;;;;;;;;;3.00;3.00;;;;;-143.90;100.00;75422.38;4975835;28;103438;-74
2023/11/08 05:06:32;;;;;;;;;4.00;4.00;;;;;-143.90;100.00;75422.38;4978786;28;102172;-74
2023/11/08 05:08:59;;;;;;;;;2.00;2.00;;;;;-143.90;100.00;75438.94;4976568;28;102240;-74
2023/11/08 05:11:27;;;;;;;;;4.00;3.00;;;;;-143.90;100.00;75420.31;4973977;28;103650;-73
2023/11/08 05:13:54;;;;;;;;;4.00;4.00;;;;;-143.90;100.00;75424.44;4972603;28;104211;-73
2023/11/08 05:16:22;;;;;;;;;5.00;4.75;;;;;-143.90;100.00;75430.66;4977377;28;102664;-74
2023/11/08 05:18:50;;;;;;;;;4.50;3.75;;;;;-143.90;100.00;75430.66;4976063;28;102232;-74
2023/11/08 05:21:18;;;;;;;;;9.00;6.50;;;;;-143.90;100.00;75432.72;4968628;28;102308;-74
2023/11/08 05:23:45;;;;;;;;;7.50;7.00;;;;;-143.90;100.00;75432.72;4972791;28;104010;-73
2023/11/08 05:26:12;;;;;;;;;14.00;8.75;;;;;-143.90;100.00;75434.78;4976675;28;101948;-74
2023/11/08 05:28:39;;;;;;;;;8.25;7.50;;;;;-143.90;100.00;75438.94;4982200;28;102569;-73
2023/11/08 05:31:05;;;;;;;;;12.00;9.75;;;;;-143.90;100.00;75441.00;4977412;28;102294;-73
2023/11/08 05:33:32;;;;;;;;;14.25;12.00;;;;;-143.90;100.00;75436.84;4973649;28;104243;-73
2023/11/08 05:35:59;;;;;;;;;13.00;9.00;;;;;-143.90;100.00;75441.00;4976649;28;102522;-74
2023/11/08 05:38:26;;;;;;;;;15.75;15.25;;;;;-143.90;100.00;75445.13;4975182;28;102136;-74
2023/11/08 05:40:53;;;;;;;;;13.25;11.50;;;;;-143.90;100.00;75441.00;4987347;28;102262;-74
2023/11/08 05:43:21;;;;;;;;;8.50;8.00;;;;;-143.90;100.00;75449.25;4983896;28;103315;-74
2023/11/08 05:45:48;;;;;;;;;13.50;12.75;;;;;-143.90;100.00;75449.25;4979993;28;102945;-74
2023/11/08 05:48:16;;;;;;;;;8.75;8.75;;;;;-143.90;100.00;75449.25;4983043;28;102228;-74
2023/11/08 05:50:44;;;;;;;;;14.75;12.00;;;;;-143.90;100.00;75451.31;4981400;28;102284;-74
2023/11/08 05:53:16;;;;;;;;;18.25;15.50;;;;;-143.90;100.00;75465.81;4980143;28;104240;-74
2023/11/08 05:55:43;;;;;;;;;15.25;14.00;;;;;-143.90;100.00;75465.81;4975230;28;102928;-74
2023/11/08 05:58:09;;;;;;;;;20.50;19.00;;;;;-143.90;100.00;75478.22;4976855;28;102325;-74
2023/11/08 06:00:40;;;;;;;;;22.50;21.25;;;;;-143.90;100.00;75488.53;4981011;28;102439;-73
2023/11/08 06:03:07;;;;;;;;;22.50;21.00;;;;;-143.90;100.00;75476.13;4980413;28;103957;-74
2023/11/08 06:05:34;;;;;;;;;15.25;15.00;;;;;-143.90;100.00;75482.34;4974372;28;102297;-74
2023/11/08 06:08:03;;;;;;;;;22.25;19.00;;;;;-143.90;100.00;75480.28;4975447;28;102373;-74
2023/11/08 06:10:32;;;;;;;;;18.25;18.00;;;;;-143.90;100.00;75486.47;4984609;28;102479;-75
2023/11/08 06:13:00;;;;;;;;;20.50;14.75;;;;;-143.90;100.00;75488.53;4975370;28;104349;-74
2023/11/08 06:15:26;;;;;;;;;18.75;17.75;;;;;-143.90;100.00;75490.63;4976905;28;102233;-75
2023/11/08 06:17:53;;;;;;;;;23.50;22.75;;;;;-143.90;100.00;75492.69;4973210;28;102210;-75
2023/11/08 06:20:21;;;;;;;;;18.75;13.75;;;;;-143.90;100.00;75492.69;4977306;28;102192;-73
2023/11/08 06:22:48;;;;;;;;;12.25;10.50;;;;;-143.90;100.00;75494.75;4978310;28;103692;-74
2023/11/08 06:25:15;;;;;;;;;12.75;11.50;;;;;-143.90;100.00;75492.69;4972583;28;102178;-74
2023/11/08 06:27:42;;;;;;;;;14.25;14.00;;;;;-143.90;100.00;75498.88;4974417;28;102199;-74
2023/11/08 06:30:11;;;;;;;;;19.00;16.50;;;;;-143.90;100.00;75505.09;4977710;28;102397;-74
2023/11/08 06:32:38;;;;;;;;;23.50;20.50;;;;;-143.90;100.00;75511.28;4982625;28;104452;-74
2023/11/08 06:35:05;;;;;;;;;19.00;17.00;;;;;-143.90;100.00;75517.50;4973035;28;101872;-74
2023/11/08 06:37:32;;;;;;;;;20.50;17.50;;;;;-143.90;100.00;75511.28;4976159;28;101904;-74
2023/11/08 06:39:59;;;;;;;;;16.50;13.00;;;;;-143.90;100.00;75507.16;4975325;28;102372;-74
2023/11/08 06:42:26;;;;;;;;;18.50;17.00;;;;;-143.90;100.00;75517.50;4975118;28;103683;-75
2023/11/08 06:44:53;;;;;;;;;17.00;14.00;;;;;-143.90;100.00;75523.69;4973493;28;102053;-73
2023/11/08 06:47:19;;;;;;;;;18.25;15.25;;;;;-143.90;100.00;75511.28;4976685;28;101807;-74
2023/11/08 06:49:46;;;;;;;;;21.75;16.75;;;;;-143.90;100.00;75519.56;4972817;28;102231;-74
2023/11/08 06:52:13;;;;;;;;;14.25;13.25;;;;;-143.90;100.00;75511.28;4979372;28;104062;-75
2023/11/08 06:54:41;;;;;;;;;17.25;14.75;;;;;-143.90;100.00;75519.56;4976288;28;102154;-74
2023/11/08 06:57:09;;;;;;;;;13.00;12.50;;;;;-143.90;100.00;75540.22;4976264;28;102313;-75
2023/11/08 06:59:36;;;;;;;;;20.00;17.25;;;;;-143.90;100.00;75540.22;4985073;28;102008;-74
2023/11/08 07:02:03;;;;;;;;;19.25;18.75;;;;;-143.90;100.00;75538.16;4975001;28;103869;-75
2023/11/08 07:04:31;;;;;;;;;21.00;20.00;;;;;-143.90;100.00;75531.97;4977437;28;102398;-75
2023/11/08 07:07:01;;;;;;;;;17.50;14.75;;;;;-143.90;100.00;75523.69;4974671;28;103075;-75
2023/11/08 07:09:28;;;;;;;;;17.00;13.75;;;;;-143.90;100.00;75531.97;4977474;28;102238;-74
2023/11/08 07:11:55;;;;;;;;;15.00;14.00;;;;;-143.90;100.00;75536.09;4978375;28;104707;-74
2023/11/08 07:14:21;;;;;;;;;8.75;8.00;;;;;-143.90;100.00;75536.09;4975504;28;102139;-74
2023/11/08 07:16:48;;;;;;;;;14.00;12.25;;;;;-143.90;100.00;75529.91;4980800;28;102321;-74
2023/11/08 07:19:15;;;;;;;;;21.25;19.75;;;;;-143.90;100.00;75550.56;4981090;28;102632;-73
2023/11/08 07:21:42;;;;;;;;;21.75;16.25;;;;;-143.90;100.00;75546.44;4974400;28;104095;-73
2023/11/08 07:24:10;;;;;;;;;19.50;18.50;;;;;-143.90;100.00;75542.31;4977933;28;103122;-74
2023/11/08 07:26:36;;;;;;;;;20.25;17.50;;;;;-143.90;100.00;75538.16;4974677;28;101988;-74
2023/11/08 07:29:04;;;;;;;;;19.00;15.25;;;;;-143.90;100.00;75540.22;4972950;28;102075;-73
2023/11/08 07:31:36;;;;;;;;;23.25;22.50;;;;;-143.90;100.00;75544.38;4974370;28;104060;-73
2023/11/08 07:34:05;;;;;;;;;19.50;14.75;;;;;-143.90;100.00;75531.97;4977748;28;102704;-75
2023/11/08 07:36:32;;;;;;;;;18.50;15.00;;;;;-143.90;100.00;75527.81;4970418;28;102498;-74
2023/11/08 07:39:02;;;;;;;;;23.75;18.00;;;;;-143.90;100.00;75536.09;4976115;28;101989;-75
2023/11/08 07:41:33;;;;;;;;;17.75;16.00;;;;;-143.90;100.00;75527.81;4975596;28;104148;-75
2023/11/08 07:44:00;;;;;;;;;12.00;12.00;;;;;-143.90;100.00;75523.69;4976101;28;102022;-74
2023/11/08 07:46:27;;;;;;;;;22.75;19.25;;;;;-143.90;100.00;75527.81;4980836;28;101996;-75
2023/11/08 07:48:55;;;;;;;;;20.00;18.00;;;;;-143.90;100.00;75525.75;4974549;28;102125;-73
2023/11/08 07:51:25;;;;;;;;;16.25;15.00;;;;;-143.90;100.00;75527.81;4971593;28;104076;-73
2023/11/08 07:53:56;;;;;;;;;12.75;11.25;;;;;-143.90;100.00;75523.69;4976623;28;102265;-73
2023/11/08 07:56:24;;;;;;;;;14.50;13.25;;;;;-143.90;100.00;75517.50;4975287;28;102487;-74
2023/11/08 07:58:52;;;;;;;;;12.00;12.00;;;;;-143.90;100.00;75515.41;4977997;28;101983;-74
2023/11/08 08:01:20;;;;;;;;;9.25;9.00;;;;;-143.90;100.00;75511.28;4972793;28;105322;-74
2023/11/08 08:03:48;;;;;;;;;12.00;12.00;;;;;-143.90;100.00;75515.41;4976736;28;102306;-74
2023/11/08 08:06:15;;;;;;;;;11.75;11.25;;;;;-143.90;100.00;75490.63;4972090;28;102151;-74
2023/11/08 08:08:43;;;;;;;;;8.25;6.75;;;;;-143.90;100.00;75482.34;4973358;28;102067;-74
2023/11/08 08:11:12;;;;;;;;;7.50;7.50;;;;;-143.90;100.00;75476.13;4973342;28;102985;-76
2023/11/08 08:13:39;;;;;;;;;5.50;5.00;;;;;-143.90;100.00;75465.81;4973939;28;102619;-74
2023/11/08 08:16:06;;;;;;;;;11.00;11.00;;;;;-143.90;100.00;75472.00;4981017;28;102196;-76
2023/11/08 08:18:36;;;;;;;;;10.00;9.75;;;;;-143.90;100.00;75451.31;4974189;28;103014;-76
2023/11/08 08:21:03;;;;;;;;;10.75;10.25;;;;;-143.90;100.00;75436.84;4975050;28;103014;-77
2023/11/08 08:23:30;;;;;;;;;12.50;10.00;;;;;-143.90;100.00;75436.84;4977006;28;102230;-74
2023/11/08 08:25:57;;;;;;;;;12.75;11.00;;;;;-143.90;100.00;75438.94;4970195;28;102266;-77
2023/11/08 08:28:24;;;;;;;;;16.75;14.00;;;;;-143.90;100.00;75436.84;4972325;28;102495;-77
2023/11/08 08:30:51;;;;;;;;;17.25;15.00;;;;;-143.90;100.00;75449.25;4976990;28;103951;-76
2023/11/08 08:33:18;;;;;;;;;14.50;13.00;;;;;-143.90;100.00;75451.31;4978776;28;102099;-77
2023/11/08 08:35:44;;;;;;;;;9.75;9.75;;;;;-143.90;100.00;75436.84;4984584;28;102486;-75
2023/11/08 08:38:11;;;;;;;;;12.25;10.00;;;;;-143.90;100.00;75434.78;4976095;28;103198;-76
2023/11/08 08:40:38;;;;;;;;;7.50;6.75;;;;;-143.90;100.00;75432.72;4972486;28;104358;-78
2023/11/08 08:43:05;;;;;;;;;9.25;7.00;;;;;-143.90;100.00;75436.84;4974770;28;102083;-76
2023/11/08 08:45:32;;;;;;;;;9.50;8.50;;;;;-143.90;100.00;75438.94;4974409;28;102078;-76
2023/11/08 08:48:00;;;;;;;;;12.50;12.00;;;;;-143.90;100.00;75443.06;4985095;28;102448;-76
2023/11/08 08:50:27;;;;;;;;;8.50;7.50;;;;;-143.90;100.00;75445.13;4969720;28;102950;-77
2023/11/08 08:52:53;;;;;;;;;8.75;8.25;;;;;-143.90;100.00;75445.13;4973188;28;102074;-75
2023/11/08 08:55:20;;;;;;;;;16.25;13.25;;;;;-143.90;100.00;75469.94;4975372;28;101922;-78
2023/11/08 08:57:48;;;;;;;;;14.25;13.25;;;;;-143.90;100.00;75463.72;4979272;28;102167;-79
2023/11/08 09:00:18;;;;;;;;;14.25;14.25;;;;;-143.90;100.00;75457.53;4984130;28;103622;-76
2023/11/08 09:02:46;;;;;;;;;14.00;13.00;;;;;-143.90;100.00;75457.53;4976756;28;102287;-76
2023/11/08 09:05:18;;;;;;;;;16.50;15.25;;;;;-143.90;100.00;75465.81;4976930;28;102922;-78
2023/11/08 09:07:47;;;;;;;;;14.50;9.75;;;;;-143.90;100.00;75463.72;4982682;28;102801;-76
2023/11/08 09:10:14;;;;;;;;;14.75;10.50;;;;;-143.90;100.00;75461.66;4976103;28;103234;-79
2023/11/08 09:12:42;;;;;;;;;10.50;8.75;;;;;-143.90;100.00;75441.00;4979159;28;102204;-73
2023/11/08 09:15:12;;;;;;;;;12.75;9.75;;;;;-143.90;100.00;75420.31;4972955;28;102218;-77
2023/11/08 09:17:43;;;;;;;;;9.50;9.25;;;;;-143.90;100.00;75407.91;4976856;28;102290;-74
2023/11/08 09:20:11;;;;;;;;;18.50;15.75;;;;;-143.90;100.00;75418.25;4982018;28;104259;-75
2023/11/08 09:22:40;;;;;;;;;20.00;18.50;;;;;-143.90;100.00;75426.50;4972071;28;101853;-78
2023/11/08 09:25:09;;;;;;;;;24.00;21.00;;;;;-143.90;100.00;75418.25;4978216;28;101970;-76
2023/11/08 09:27:38;;;;;;;;;23.00;20.00;;;;;-143.90;100.00;75378.97;4974722;28;102681;-75
2023/11/08 09:30:07;;;;;;;;;16.75;16.50;;;;;-143.90;100.00;75333.47;4975736;28;103419;-76
2023/11/08 09:32:35;;;;;;;;;19.50;17.00;;;;;-143.90;100.00;75319.00;4986973;28;102110;-77
2023/11/08 09:35:02;;;;;;;;;22.00;19.00;;;;;-143.90;100.00;75345.88;4980887;28;102832;-76
2023/11/08 09:37:29;;;;;;;;;22.75;21.00;;;;;-143.90;100.00;75362.44;4974928;28;102266;-77
2023/11/08 09:39:56;;;;;;;;;21.25;17.50;;;;;-143.90;100.00;75378.97;4977689;28;104188;-75
2023/11/08 09:42:26;;;;;;;;;15.00;14.00;;;;;-143.90;100.00;75383.09;4973978;28;102657;-77
2023/11/08 09:44:58;;;;;;;;;15.25;13.75;;;;;-143.90;98.60;75383.09;4975017;28;102315;-78
2023/11/08 09:47:25;;;;;;;;;13.00;10.00;;;;;-143.90;99.80;75405.84;4980074;28;101894;-77
2023/11/08 09:49:53;;;;;;;;;8.50;8.00;;;;;-143.90;99.75;75412.03;4974802;28;104190;-76
2023/11/08 09:52:22;;;;;;;;;10.00;8.25;;;;;-143.90;100.00;75401.72;4982882;28;102179;-76
2023/11/08 09:54:49;;;;;;;;;14.50;9.50;;;;;-143.90;99.20;75399.63;4976091;28;102191;-76
2023/11/08 09:57:19;;;;;;;;;11.00;9.00;;;;;-143.90;100.00;75393.44;4978832;28;101972;-77
2023/11/08 09:59:47;;;;;;;;;11.25;9.00;;;;;-143.90;100.00;75370.69;4979185;28;104237;-76
2023/11/08 10:02:16;;;;;;;;;9.00;8.50;;;;;-143.90;98.98;75350.03;4982180;28;102233;-75
2023/11/08 10:04:44;;;;;;;;;13.50;9.00;;;;;-143.90;97.67;75352.09;4972583;28;102334;-76
2023/11/08 10:07:14;;;;;;;;;12.75;9.75;;;;;-143.90;95.64;75362.44;4977726;28;102694;-75
2023/11/08 10:09:41;;;;;;;;;14.00;10.75;;;;;-143.90;97.72;75329.34;4974112;28;102978;-76
2023/11/08 10:12:09;;;;;;;;;6.75;4.25;;;;;-143.90;95.44;75312.81;4978107;28;102391;-78
2023/11/08 10:14:39;;;;;;;;;7.00;6.25;;;;;-143.90;94.18;75316.94;4979692;28;102066;-74
2023/11/08 10:17:06;;;;;;;;;8.00;8.00;;;;;-143.90;93.64;75321.06;4985231;28;102818;-75
2023/11/08 10:19:53;;;;;;;;;11.25;11.00;;;;;-143.90;94.94;75358.28;4977683;28;105605;-74
2023/11/08 10:22:25;;;;;;;;;13.75;13.25;;;;;-143.90;94.49;75337.63;4978387;28;102262;-74
2023/11/08 10:24:57;;;;;;;;;11.50;10.00;;;;;-143.90;93.74;75327.28;4974553;28;101904;-75
2023/11/08 10:27:25;;;;;;;;;9.50;9.00;;;;;-143.90;90.44;75308.66;4974792;28;103215;-76
2023/11/08 10:29:54;;;;;;;;;11.50;9.75;;;;;-143.90;91.39;75283.84;4976382;28;104178;-75
2023/11/08 10:32:24;;;;;;;;;12.75;11.00;;;;;-143.90;89.06;75242.50;4972030;28;102339;-75
2023/11/08 10:34:52;;;;;;;;;8.00;7.50;;;;;-143.90;90.70;75209.44;4979721;28;101984;-74
2023/11/08 10:37:26;;;;;;;;;8.50;8.00;;;;;-143.90;91.62;75188.75;4976231;28;102042;-75
2023/11/08 10:39:57;;;;;;;;;8.25;8.00;;;;;-143.90;88.32;75192.91;4972684;28;104249;-73
2023/11/08 10:42:27;;;;;;;;;7.00;6.00;;;;;-143.90;88.32;75221.84;4976090;28;102188;-74
2023/11/08 10:45:10;;;;;;;;;7.75;7.00;;;;;-143.90;88.65;75211.50;4979615;28;102304;-74
2023/11/08 10:47:39;;;;;;;;;7.75;7.25;;;;;-143.90;86.92;75213.56;4978322;28;102085;-74
2023/11/08 10:50:08;;;;;;;;;8.00;6.50;;;;;-143.90;87.98;75236.31;4971860;28;104229;-73
2023/11/08 10:52:39;;;;;;;;;8.00;6.00;;;;;-143.90;86.82;75221.84;4978613;28;102094;-75
2023/11/08 10:55:08;;;;;;;;;8.00;7.50;;;;;-143.90;88.16;75271.47;4974671;28;102186;-74
2023/11/08 10:57:37;;;;;;;;;7.00;7.00;;;;;-143.90;88.81;75254.91;4977641;28;102299;-74